Winfield, Canada
Current Conditions -  °F | °C
As of 5:00 AM on Saturday 25 Oct 2014 (Local Time) from CWSE Reporting Station
Clear Clear  
Wind Chill: 23°   Ceiling: Unl
Heat Index: 30°   Visibility: 15mi
Dew Point: 20°   Wind: 8mph
Humidity: 65%   Direction: 230°SW
Pressure: 30"   Gusts: NA
Location:  52.97°N, 114.43°W
Report Text: CWSE 251100Z 23007KT 15SM CLR M01/M07 A3000 RMK SLP177 T10091067 WSI/SWOB
Loading
Personal Weather Stations






























Interactive Weather Map
Tropical Storm Tracking
New forecast layout! Learn more

10-Day Weather Forecast

Advertisements
Track Severe Weather on mobile